sensor_id;sensor_type;location;lat;lon;timestamp;temperature;humidity
23359;DHT22;11851;50.796;4.372;2022-11-15T00:00:53;13.90;99.90
23359;DHT22;11851;50.796;4.372;2022-11-15T00:03:28;13.90;99.90
23359;DHT22;11851;50.796;4.372;2022-11-15T00:05:54;13.90;99.90
23359;DHT22;11851;50.796;4.372;2022-11-15T00:08:20;13.90;99.90
23359;DHT22;11851;50.796;4.372;2022-11-15T00:10:59;14.00;99.90
23359;DHT22;11851;50.796;4.372;2022-11-15T00:13:25;14.00;99.90
23359;DHT22;11851;50.796;4.372;2022-11-15T00:15:50;14.10;99.90
23359;DHT22;11851;50.796;4.372;2022-11-15T00:18:17;14.00;99.90
23359;DHT22;11851;50.796;4.372;2022-11-15T00:20:43;14.00;99.90
23359;DHT22;11851;50.796;4.372;2022-11-15T00:23:09;14.00;99.90
23359;DHT22;11851;50.796;4.372;2022-11-15T00:25:35;13.90;99.90
23359;DHT22;11851;50.796;4.372;2022-11-15T00:28:01;13.90;99.90
23359;DHT22;11851;50.796;4.372;2022-11-15T00:30:27;13.90;99.90
23359;DHT22;11851;50.796;4.372;2022-11-15T00:32:53;14.00;99.90
23359;DHT22;11851;50.796;4.372;2022-11-15T00:35:20;14.00;99.90
23359;DHT22;11851;50.796;4.372;2022-11-15T00:37:46;14.00;99.90
23359;DHT22;11851;50.796;4.372;2022-11-15T00:40:13;14.10;99.90
23359;DHT22;11851;50.796;4.372;2022-11-15T00:42:39;14.10;99.90
23359;DHT22;11851;50.796;4.372;2022-11-15T00:45:05;14.10;99.90
23359;DHT22;11851;50.796;4.372;2022-11-15T00:47:31;14.00;99.90
23359;DHT22;11851;50.796;4.372;2022-11-15T00:49:56;14.10;99.90
23359;DHT22;11851;50.796;4.372;2022-11-15T00:52:22;14.20;99.90
23359;DHT22;11851;50.796;4.372;2022-11-15T00:54:48;14.20;99.90
23359;DHT22;11851;50.796;4.372;2022-11-15T00:57:13;14.20;99.90
23359;DHT22;11851;50.796;4.372;2022-11-15T00:59:39;14.20;99.90
23359;DHT22;11851;50.796;4.372;2022-11-15T01:02:04;14.10;99.90
23359;DHT22;11851;50.796;4.372;2022-11-15T01:04:30;14.20;99.90
23359;DHT22;11851;50.796;4.372;2022-11-15T01:06:56;14.20;99.90
23359;DHT22;11851;50.796;4.372;2022-11-15T01:09:21;14.20;99.90
23359;DHT22;11851;50.796;4.372;2022-11-15T01:11:47;14.10;99.90
23359;DHT22;11851;50.796;4.372;2022-11-15T01:14:13;14.10;99.90
23359;DHT22;11851;50.796;4.372;2022-11-15T01:16:39;14.20;99.90
23359;DHT22;11851;50.796;4.372;2022-11-15T01:19:05;14.20;99.90
23359;DHT22;11851;50.796;4.372;2022-11-15T01:21:30;14.10;99.90
23359;DHT22;11851;50.796;4.372;2022-11-15T01:23:57;14.10;99.90
23359;DHT22;11851;50.796;4.372;2022-11-15T01:26:23;14.10;99.90
23359;DHT22;11851;50.796;4.372;2022-11-15T01:28:49;14.10;99.90
23359;DHT22;11851;50.796;4.372;2022-11-15T01:31:18;14.20;99.90
23359;DHT22;11851;50.796;4.372;2022-11-15T01:33:45;14.10;99.90
23359;DHT22;11851;50.796;4.372;2022-11-15T01:36:14;14.10;99.90
23359;DHT22;11851;50.796;4.372;2022-11-15T01:38:41;14.10;99.90
23359;DHT22;11851;50.796;4.372;2022-11-15T01:41:12;14.10;99.90
23359;DHT22;11851;50.796;4.372;2022-11-15T01:43:39;14.20;99.90
23359;DHT22;11851;50.796;4.372;2022-11-15T01:46:30;14.30;99.90
23359;DHT22;11851;50.796;4.372;2022-11-15T01:49:02;14.30;99.90
23359;DHT22;11851;50.796;4.372;2022-11-15T01:51:30;14.30;99.90
23359;DHT22;11851;50.796;4.372;2022-11-15T01:54:00;14.30;99.90
23359;DHT22;11851;50.796;4.372;2022-11-15T01:56:31;14.40;99.90
23359;DHT22;11851;50.796;4.372;2022-11-15T01:59:01;14.40;99.90
23359;DHT22;11851;50.796;4.372;2022-11-15T02:01:28;14.30;99.90
23359;DHT22;11851;50.796;4.372;2022-11-15T02:03:59;14.20;99.90
23359;DHT22;11851;50.796;4.372;2022-11-15T02:06:25;14.20;99.90
23359;DHT22;11851;50.796;4.372;2022-11-15T02:08:51;14.20;99.90
23359;DHT22;11851;50.796;4.372;2022-11-15T02:11:16;14.20;99.90
23359;DHT22;11851;50.796;4.372;2022-11-15T02:13:43;14.30;99.90
23359;DHT22;11851;50.796;4.372;2022-11-15T02:16:21;14.30;99.90
23359;DHT22;11851;50.796;4.372;2022-11-15T02:22:37;14.20;99.90
23359;DHT22;11851;50.796;4.372;2022-11-15T02:33:04;14.30;99.90
23359;DHT22;11851;50.796;4.372;2022-11-15T02:35:52;14.30;99.90
23359;DHT22;11851;50.796;4.372;2022-11-15T02:41:50;14.20;99.90
23359;DHT22;11851;50.796;4.372;2022-11-15T02:44:30;14.20;99.90
23359;DHT22;11851;50.796;4.372;2022-11-15T02:47:01;14.20;99.90
23359;DHT22;11851;50.796;4.372;2022-11-15T02:49:48;14.10;99.90
23359;DHT22;11851;50.796;4.372;2022-11-15T02:52:22;14.10;99.90
23359;DHT22;11851;50.796;4.372;2022-11-15T02:54:58;14.10;99.90
23359;DHT22;11851;50.796;4.372;2022-11-15T02:57:45;14.10;99.90
23359;DHT22;11851;50.796;4.372;2022-11-15T03:00:21;14.20;99.90
23359;DHT22;11851;50.796;4.372;2022-11-15T03:03:08;14.30;99.90
23359;DHT22;11851;50.796;4.372;2022-11-15T03:06:01;14.30;99.90
23359;DHT22;11851;50.796;4.372;2022-11-15T03:08:34;14.30;99.90
23359;DHT22;11851;50.796;4.372;2022-11-15T03:11:08;14.30;99.90
23359;DHT22;11851;50.796;4.372;2022-11-15T03:16:08;14.20;99.90
23359;DHT22;11851;50.796;4.372;2022-11-15T03:18:41;14.10;99.90
23359;DHT22;11851;50.796;4.372;2022-11-15T03:21:10;14.10;99.90
23359;DHT22;11851;50.796;4.372;2022-11-15T03:23:38;14.10;99.90
23359;DHT22;11851;50.796;4.372;2022-11-15T03:26:09;14.00;99.90
23359;DHT22;11851;50.796;4.372;2022-11-15T03:29:01;14.10;99.90
23359;DHT22;11851;50.796;4.372;2022-11-15T03:31:31;14.00;99.90
23359;DHT22;11851;50.796;4.372;2022-11-15T03:34:28;14.00;99.90
23359;DHT22;11851;50.796;4.372;2022-11-15T03:36:55;14.00;99.90
23359;DHT22;11851;50.796;4.372;2022-11-15T03:39:21;13.90;99.90
23359;DHT22;11851;50.796;4.372;2022-11-15T03:44:36;14.00;99.90
23359;DHT22;11851;50.796;4.372;2022-11-15T03:47:09;14.00;99.90
23359;DHT22;11851;50.796;4.372;2022-11-15T03:49:42;13.90;99.90
23359;DHT22;11851;50.796;4.372;2022-11-15T03:52:10;13.90;99.90
23359;DHT22;11851;50.796;4.372;2022-11-15T03:54:37;14.00;99.90
23359;DHT22;11851;50.796;4.372;2022-11-15T03:57:02;14.00;99.90
23359;DHT22;11851;50.796;4.372;2022-11-15T03:59:28;13.90;99.90
23359;DHT22;11851;50.796;4.372;2022-11-15T04:01:53;13.90;99.90
23359;DHT22;11851;50.796;4.372;2022-11-15T04:04:19;13.90;99.90
23359;DHT22;11851;50.796;4.372;2022-11-15T04:06:45;13.90;99.90
23359;DHT22;11851;50.796;4.372;2022-11-15T04:09:10;13.80;99.90
23359;DHT22;11851;50.796;4.372;2022-11-15T04:11:36;13.80;99.90
23359;DHT22;11851;50.796;4.372;2022-11-15T04:14:02;13.70;99.90
23359;DHT22;11851;50.796;4.372;2022-11-15T04:16:27;13.80;99.90
23359;DHT22;11851;50.796;4.372;2022-11-15T04:18:53;13.80;99.90
23359;DHT22;11851;50.796;4.372;2022-11-15T04:21:37;13.80;99.90
23359;DHT22;11851;50.796;4.372;2022-11-15T04:24:28;13.70;99.90
23359;DHT22;11851;50.796;4.372;2022-11-15T04:26:54;13.80;99.90
23359;DHT22;11851;50.796;4.372;2022-11-15T04:29:20;13.80;99.90
23359;DHT22;11851;50.796;4.372;2022-11-15T04:32:04;13.80;99.90
23359;DHT22;11851;50.796;4.372;2022-11-15T04:34:31;13.70;99.90
23359;DHT22;11851;50.796;4.372;2022-11-15T04:36:57;13.70;99.90
23359;DHT22;11851;50.796;4.372;2022-11-15T04:39:38;13.60;99.90
23359;DHT22;11851;50.796;4.372;2022-11-15T04:42:04;13.60;99.90
23359;DHT22;11851;50.796;4.372;2022-11-15T04:44:29;13.60;99.90
23359;DHT22;11851;50.796;4.372;2022-11-15T04:46:55;13.70;99.90
23359;DHT22;11851;50.796;4.372;2022-11-15T04:49:21;13.70;99.90
23359;DHT22;11851;50.796;4.372;2022-11-15T04:51:47;13.70;99.90
23359;DHT22;11851;50.796;4.372;2022-11-15T04:54:12;13.70;99.90
23359;DHT22;11851;50.796;4.372;2022-11-15T04:56:38;13.60;99.90
23359;DHT22;11851;50.796;4.372;2022-11-15T04:59:04;13.60;99.90
23359;DHT22;11851;50.796;4.372;2022-11-15T05:01:29;13.60;99.90
23359;DHT22;11851;50.796;4.372;2022-11-15T05:03:55;13.50;99.90
23359;DHT22;11851;50.796;4.372;2022-11-15T05:06:39;13.50;99.90
23359;DHT22;11851;50.796;4.372;2022-11-15T05:09:05;13.60;99.90
23359;DHT22;11851;50.796;4.372;2022-11-15T05:11:30;13.50;99.90
23359;DHT22;11851;50.796;4.372;2022-11-15T05:13:56;13.50;99.90
23359;DHT22;11851;50.796;4.372;2022-11-15T05:16:22;13.50;99.90
23359;DHT22;11851;50.796;4.372;2022-11-15T05:18:54;13.40;99.90
23359;DHT22;11851;50.796;4.372;2022-11-15T05:21:19;13.30;99.90
23359;DHT22;11851;50.796;4.372;2022-11-15T05:23:45;13.10;99.90
23359;DHT22;11851;50.796;4.372;2022-11-15T05:26:11;13.00;99.90
23359;DHT22;11851;50.796;4.372;2022-11-15T05:28:37;13.00;99.90
23359;DHT22;11851;50.796;4.372;2022-11-15T05:31:08;13.00;99.90
23359;DHT22;11851;50.796;4.372;2022-11-15T05:33:35;13.00;99.90
23359;DHT22;11851;50.796;4.372;2022-11-15T05:38:35;13.00;99.90
23359;DHT22;11851;50.796;4.372;2022-11-15T05:41:01;12.90;99.90
23359;DHT22;11851;50.796;4.372;2022-11-15T05:43:30;12.90;99.90
23359;DHT22;11851;50.796;4.372;2022-11-15T05:45:59;12.90;99.90
23359;DHT22;11851;50.796;4.372;2022-11-15T05:48:25;12.90;99.90
23359;DHT22;11851;50.796;4.372;2022-11-15T05:50:51;12.80;99.90
23359;DHT22;11851;50.796;4.372;2022-11-15T05:53:19;12.70;99.90
23359;DHT22;11851;50.796;4.372;2022-11-15T05:55:47;12.70;99.90
23359;DHT22;11851;50.796;4.372;2022-11-15T05:58:13;12.50;99.90
23359;DHT22;11851;50.796;4.372;2022-11-15T06:00:39;12.50;99.90
23359;DHT22;11851;50.796;4.372;2022-11-15T06:03:04;12.50;99.90
23359;DHT22;11851;50.796;4.372;2022-11-15T06:05:30;12.40;99.90
23359;DHT22;11851;50.796;4.372;2022-11-15T06:07:59;12.40;99.90
23359;DHT22;11851;50.796;4.372;2022-11-15T06:10:24;12.30;99.90
23359;DHT22;11851;50.796;4.372;2022-11-15T06:13:00;12.40;99.90
23359;DHT22;11851;50.796;4.372;2022-11-15T06:15:26;12.40;99.90
23359;DHT22;11851;50.796;4.372;2022-11-15T06:17:52;12.40;99.90
23359;DHT22;11851;50.796;4.372;2022-11-15T06:20:23;12.40;99.90
23359;DHT22;11851;50.796;4.372;2022-11-15T06:22:48;12.40;99.90
23359;DHT22;11851;50.796;4.372;2022-11-15T06:25:14;12.50;99.90
23359;DHT22;11851;50.796;4.372;2022-11-15T06:27:40;12.50;99.90
23359;DHT22;11851;50.796;4.372;2022-11-15T06:30:06;12.50;99.90
23359;DHT22;11851;50.796;4.372;2022-11-15T06:32:31;12.50;99.90
23359;DHT22;11851;50.796;4.372;2022-11-15T06:34:57;12.40;99.90
23359;DHT22;11851;50.796;4.372;2022-11-15T06:37:23;12.50;99.90
23359;DHT22;11851;50.796;4.372;2022-11-15T06:39:48;12.50;99.90
23359;DHT22;11851;50.796;4.372;2022-11-15T06:42:14;12.40;99.90
23359;DHT22;11851;50.796;4.372;2022-11-15T06:44:39;12.30;99.90
23359;DHT22;11851;50.796;4.372;2022-11-15T06:47:05;12.40;99.90
23359;DHT22;11851;50.796;4.372;2022-11-15T06:49:31;12.30;99.90
23359;DHT22;11851;50.796;4.372;2022-11-15T06:51:56;12.30;99.90
23359;DHT22;11851;50.796;4.372;2022-11-15T06:54:22;12.30;99.90
23359;DHT22;11851;50.796;4.372;2022-11-15T06:56:47;12.30;99.90
23359;DHT22;11851;50.796;4.372;2022-11-15T06:59:13;12.30;99.90
23359;DHT22;11851;50.796;4.372;2022-11-15T07:01:39;12.30;99.90
23359;DHT22;11851;50.796;4.372;2022-11-15T07:04:04;12.20;99.90
23359;DHT22;11851;50.796;4.372;2022-11-15T07:06:30;12.30;99.90
23359;DHT22;11851;50.796;4.372;2022-11-15T07:08:55;12.30;99.90
23359;DHT22;11851;50.796;4.372;2022-11-15T07:11:21;12.30;99.90
23359;DHT22;11851;50.796;4.372;2022-11-15T07:13:47;12.30;99.90
23359;DHT22;11851;50.796;4.372;2022-11-15T07:16:12;12.30;99.90
23359;DHT22;11851;50.796;4.372;2022-11-15T07:18:39;12.20;99.90
23359;DHT22;11851;50.796;4.372;2022-11-15T07:21:07;12.20;99.90
23359;DHT22;11851;50.796;4.372;2022-11-15T07:23:36;12.20;99.90
23359;DHT22;11851;50.796;4.372;2022-11-15T07:26:03;12.10;99.90
23359;DHT22;11851;50.796;4.372;2022-11-15T07:28:28;12.10;99.90
23359;DHT22;11851;50.796;4.372;2022-11-15T07:30:54;12.00;99.90
23359;DHT22;11851;50.796;4.372;2022-11-15T07:33:20;11.90;99.90
23359;DHT22;11851;50.796;4.372;2022-11-15T07:35:46;12.00;99.90
23359;DHT22;11851;50.796;4.372;2022-11-15T07:38:15;12.10;99.90
23359;DHT22;11851;50.796;4.372;2022-11-15T07:40:44;12.00;99.90
23359;DHT22;11851;50.796;4.372;2022-11-15T07:43:10;12.10;99.90
23359;DHT22;11851;50.796;4.372;2022-11-15T07:45:41;12.10;99.90
23359;DHT22;11851;50.796;4.372;2022-11-15T07:48:07;12.10;99.90
23359;DHT22;11851;50.796;4.372;2022-11-15T07:50:33;12.10;99.90
23359;DHT22;11851;50.796;4.372;2022-11-15T07:52:59;12.10;99.90
23359;DHT22;11851;50.796;4.372;2022-11-15T07:55:26;12.10;99.90
23359;DHT22;11851;50.796;4.372;2022-11-15T07:57:53;12.10;99.90
23359;DHT22;11851;50.796;4.372;2022-11-15T08:00:19;12.20;99.90
23359;DHT22;11851;50.796;4.372;2022-11-15T08:02:45;12.20;99.90
23359;DHT22;11851;50.796;4.372;2022-11-15T08:05:11;12.30;99.90
23359;DHT22;11851;50.796;4.372;2022-11-15T08:07:36;12.30;99.90
23359;DHT22;11851;50.796;4.372;2022-11-15T08:10:04;12.30;99.90
23359;DHT22;11851;50.796;4.372;2022-11-15T08:12:31;12.30;99.90
23359;DHT22;11851;50.796;4.372;2022-11-15T08:14:57;12.30;99.90
23359;DHT22;11851;50.796;4.372;2022-11-15T08:17:23;12.40;99.90
23359;DHT22;11851;50.796;4.372;2022-11-15T08:19:49;12.40;99.90
23359;DHT22;11851;50.796;4.372;2022-11-15T08:22:15;12.40;99.90
23359;DHT22;11851;50.796;4.372;2022-11-15T08:24:40;12.40;99.90
23359;DHT22;11851;50.796;4.372;2022-11-15T08:27:06;12.40;99.90
23359;DHT22;11851;50.796;4.372;2022-11-15T08:29:47;12.40;99.90
23359;DHT22;11851;50.796;4.372;2022-11-15T08:32:13;12.40;99.90
23359;DHT22;11851;50.796;4.372;2022-11-15T08:34:38;12.40;99.90
23359;DHT22;11851;50.796;4.372;2022-11-15T08:37:04;12.40;99.90
23359;DHT22;11851;50.796;4.372;2022-11-15T08:39:30;12.40;99.90
23359;DHT22;11851;50.796;4.372;2022-11-15T08:41:56;12.40;99.90
23359;DHT22;11851;50.796;4.372;2022-11-15T08:44:21;12.50;99.90
23359;DHT22;11851;50.796;4.372;2022-11-15T08:46:47;12.50;99.90
23359;DHT22;11851;50.796;4.372;2022-11-15T08:49:13;12.50;99.90
23359;DHT22;11851;50.796;4.372;2022-11-15T08:51:38;12.60;99.90
23359;DHT22;11851;50.796;4.372;2022-11-15T08:54:04;12.70;99.90
23359;DHT22;11851;50.796;4.372;2022-11-15T08:56:30;12.80;99.90
23359;DHT22;11851;50.796;4.372;2022-11-15T08:58:55;12.70;99.90
23359;DHT22;11851;50.796;4.372;2022-11-15T09:01:22;12.70;99.90
23359;DHT22;11851;50.796;4.372;2022-11-15T09:03:48;12.80;99.90
23359;DHT22;11851;50.796;4.372;2022-11-15T09:06:13;12.90;99.90
23359;DHT22;11851;50.796;4.372;2022-11-15T09:08:40;12.90;99.90
23359;DHT22;11851;50.796;4.372;2022-11-15T09:11:07;12.90;99.90
23359;DHT22;11851;50.796;4.372;2022-11-15T09:13:33;12.80;99.90
23359;DHT22;11851;50.796;4.372;2022-11-15T09:15:59;12.80;99.90
23359;DHT22;11851;50.796;4.372;2022-11-15T09:18:25;12.90;99.90
23359;DHT22;11851;50.796;4.372;2022-11-15T09:20:51;12.90;99.90
23359;DHT22;11851;50.796;4.372;2022-11-15T09:23:16;13.00;99.90
23359;DHT22;11851;50.796;4.372;2022-11-15T09:25:42;13.10;99.90
23359;DHT22;11851;50.796;4.372;2022-11-15T09:28:08;13.10;99.90
23359;DHT22;11851;50.796;4.372;2022-11-15T09:30:34;13.20;99.90
23359;DHT22;11851;50.796;4.372;2022-11-15T09:33:09;13.20;99.90
23359;DHT22;11851;50.796;4.372;2022-11-15T09:35:35;13.20;99.90
23359;DHT22;11851;50.796;4.372;2022-11-15T09:38:01;13.30;99.90
23359;DHT22;11851;50.796;4.372;2022-11-15T09:40:27;13.30;99.90
23359;DHT22;11851;50.796;4.372;2022-11-15T09:45:32;13.20;99.90
23359;DHT22;11851;50.796;4.372;2022-11-15T09:50:50;13.30;99.90
23359;DHT22;11851;50.796;4.372;2022-11-15T09:56:18;13.40;99.90
23359;DHT22;11851;50.796;4.372;2022-11-15T10:04:17;13.60;99.90
23359;DHT22;11851;50.796;4.372;2022-11-15T10:12:47;13.90;99.90
23359;DHT22;11851;50.796;4.372;2022-11-15T10:15:16;13.90;99.90
23359;DHT22;11851;50.796;4.372;2022-11-15T10:18:09;13.90;99.90
23359;DHT22;11851;50.796;4.372;2022-11-15T10:20:50;14.00;99.90
23359;DHT22;11851;50.796;4.372;2022-11-15T10:23:19;14.10;99.90
23359;DHT22;11851;50.796;4.372;2022-11-15T10:25:45;14.10;99.90
23359;DHT22;11851;50.796;4.372;2022-11-15T10:28:20;14.20;99.90
23359;DHT22;11851;50.796;4.372;2022-11-15T10:30:55;14.30;99.90
23359;DHT22;11851;50.796;4.372;2022-11-15T10:36:18;14.20;99.90
23359;DHT22;11851;50.796;4.372;2022-11-15T10:38:54;14.40;99.90
23359;DHT22;11851;50.796;4.372;2022-11-15T10:41:33;14.50;99.90
23359;DHT22;11851;50.796;4.372;2022-11-15T10:44:19;14.60;99.90
23359;DHT22;11851;50.796;4.372;2022-11-15T10:49:32;14.60;99.90
23359;DHT22;11851;50.796;4.372;2022-11-15T10:52:12;14.70;99.90
23359;DHT22;11851;50.796;4.372;2022-11-15T10:57:23;14.80;99.90
23359;DHT22;11851;50.796;4.372;2022-11-15T10:59:56;14.80;99.90
23359;DHT22;11851;50.796;4.372;2022-11-15T11:02:35;15.00;99.90
23359;DHT22;11851;50.796;4.372;2022-11-15T11:05:04;15.00;99.90
23359;DHT22;11851;50.796;4.372;2022-11-15T11:07:32;15.10;99.90
23359;DHT22;11851;50.796;4.372;2022-11-15T11:10:05;15.10;99.90
23359;DHT22;11851;50.796;4.372;2022-11-15T11:12:42;15.10;99.90
23359;DHT22;11851;50.796;4.372;2022-11-15T11:15:15;15.10;99.90
23359;DHT22;11851;50.796;4.372;2022-11-15T11:33:21;15.30;99.90
23359;DHT22;11851;50.796;4.372;2022-11-15T11:35:59;15.30;99.90
23359;DHT22;11851;50.796;4.372;2022-11-15T11:38:39;15.40;99.90
23359;DHT22;11851;50.796;4.372;2022-11-15T11:41:23;15.50;99.90
23359;DHT22;11851;50.796;4.372;2022-11-15T11:44:14;15.70;99.90
23359;DHT22;11851;50.796;4.372;2022-11-15T11:49:33;15.60;99.90
23359;DHT22;11851;50.796;4.372;2022-11-15T12:00:21;15.40;99.90
23359;DHT22;11851;50.796;4.372;2022-11-15T12:05:30;15.40;99.90
23359;DHT22;11851;50.796;4.372;2022-11-15T12:08:10;15.30;99.90
23359;DHT22;11851;50.796;4.372;2022-11-15T12:10:40;15.20;99.90
23359;DHT22;11851;50.796;4.372;2022-11-15T12:13:19;15.20;99.90
23359;DHT22;11851;50.796;4.372;2022-11-15T12:16:22;15.20;99.90
23359;DHT22;11851;50.796;4.372;2022-11-15T12:18:51;15.10;99.90
23359;DHT22;11851;50.796;4.372;2022-11-15T12:27:10;15.40;99.90
23359;DHT22;11851;50.796;4.372;2022-11-15T12:29:48;15.30;99.90
23359;DHT22;11851;50.796;4.372;2022-11-15T12:32:38;15.40;99.90
23359;DHT22;11851;50.796;4.372;2022-11-15T12:35:24;15.30;99.90
23359;DHT22;11851;50.796;4.372;2022-11-15T12:37:52;15.40;99.90
23359;DHT22;11851;50.796;4.372;2022-11-15T12:40:29;15.50;99.90
23359;DHT22;11851;50.796;4.372;2022-11-15T12:45:42;15.70;99.90
23359;DHT22;11851;50.796;4.372;2022-11-15T12:51:03;15.70;99.90
23359;DHT22;11851;50.796;4.372;2022-11-15T12:53:33;15.60;99.90
23359;DHT22;11851;50.796;4.372;2022-11-15T12:58:44;15.70;99.90
23359;DHT22;11851;50.796;4.372;2022-11-15T13:12:00;16.00;99.90
23359;DHT22;11851;50.796;4.372;2022-11-15T13:14:49;15.90;99.90
23359;DHT22;11851;50.796;4.372;2022-11-15T13:17:32;15.90;99.90
23359;DHT22;11851;50.796;4.372;2022-11-15T13:27:57;15.90;99.90
23359;DHT22;11851;50.796;4.372;2022-11-15T13:30:32;15.90;99.90
23359;DHT22;11851;50.796;4.372;2022-11-15T13:33:09;15.90;99.90
23359;DHT22;11851;50.796;4.372;2022-11-15T13:35:39;15.80;99.90
23359;DHT22;11851;50.796;4.372;2022-11-15T13:38:05;15.80;99.90
23359;DHT22;11851;50.796;4.372;2022-11-15T13:40:36;15.90;99.90
23359;DHT22;11851;50.796;4.372;2022-11-15T13:43:31;15.80;99.90
23359;DHT22;11851;50.796;4.372;2022-11-15T13:48:40;15.80;99.90
23359;DHT22;11851;50.796;4.372;2022-11-15T13:51:30;15.70;99.90
23359;DHT22;11851;50.796;4.372;2022-11-15T13:54:09;15.70;99.90
23359;DHT22;11851;50.796;4.372;2022-11-15T13:56:49;15.80;99.90
23359;DHT22;11851;50.796;4.372;2022-11-15T14:01:50;15.80;99.90
23359;DHT22;11851;50.796;4.372;2022-11-15T14:04:20;15.80;99.90
23359;DHT22;11851;50.796;4.372;2022-11-15T14:06:53;15.80;99.90
23359;DHT22;11851;50.796;4.372;2022-11-15T14:12:00;15.60;99.90
23359;DHT22;11851;50.796;4.372;2022-11-15T14:14:28;15.60;99.90
23359;DHT22;11851;50.796;4.372;2022-11-15T14:16:56;15.60;99.90
23359;DHT22;11851;50.796;4.372;2022-11-15T14:24:36;15.60;99.90
23359;DHT22;11851;50.796;4.372;2022-11-15T14:27:24;15.70;99.90
23359;DHT22;11851;50.796;4.372;2022-11-15T14:29:51;15.70;99.90
23359;DHT22;11851;50.796;4.372;2022-11-15T14:32:22;15.70;99.90
23359;DHT22;11851;50.796;4.372;2022-11-15T14:34:59;15.70;99.90
23359;DHT22;11851;50.796;4.372;2022-11-15T14:37:30;15.70;99.90
23359;DHT22;11851;50.796;4.372;2022-11-15T14:40:00;15.60;99.90
23359;DHT22;11851;50.796;4.372;2022-11-15T14:42:27;15.60;99.90
23359;DHT22;11851;50.796;4.372;2022-11-15T14:44:52;15.50;99.90
23359;DHT22;11851;50.796;4.372;2022-11-15T14:47:18;15.50;99.90
23359;DHT22;11851;50.796;4.372;2022-11-15T14:49:44;15.60;99.90
23359;DHT22;11851;50.796;4.372;2022-11-15T14:52:28;15.50;99.90
23359;DHT22;11851;50.796;4.372;2022-11-15T14:54:55;15.50;99.90
23359;DHT22;11851;50.796;4.372;2022-11-15T14:57:21;15.50;99.90
23359;DHT22;11851;50.796;4.372;2022-11-15T14:59:47;15.40;99.90
23359;DHT22;11851;50.796;4.372;2022-11-15T15:02:20;15.30;99.90
23359;DHT22;11851;50.796;4.372;2022-11-15T15:04:47;15.20;99.90
23359;DHT22;11851;50.796;4.372;2022-11-15T15:07:13;15.30;99.90
23359;DHT22;11851;50.796;4.372;2022-11-15T15:09:39;15.30;99.90
23359;DHT22;11851;50.796;4.372;2022-11-15T15:12:20;15.30;99.90
23359;DHT22;11851;50.796;4.372;2022-11-15T15:14:47;15.20;99.90
23359;DHT22;11851;50.796;4.372;2022-11-15T15:17:14;15.30;99.90
23359;DHT22;11851;50.796;4.372;2022-11-15T15:19:40;15.30;99.90
23359;DHT22;11851;50.796;4.372;2022-11-15T15:22:08;15.20;99.90
23359;DHT22;11851;50.796;4.372;2022-11-15T15:24:35;15.20;99.90
23359;DHT22;11851;50.796;4.372;2022-11-15T15:27:00;15.10;99.90
23359;DHT22;11851;50.796;4.372;2022-11-15T15:29:26;15.10;99.90
23359;DHT22;11851;50.796;4.372;2022-11-15T15:31:51;15.10;99.90
23359;DHT22;11851;50.796;4.372;2022-11-15T15:34:17;15.20;99.90
23359;DHT22;11851;50.796;4.372;2022-11-15T15:36:43;15.10;99.90
23359;DHT22;11851;50.796;4.372;2022-11-15T15:39:10;15.20;99.90
23359;DHT22;11851;50.796;4.372;2022-11-15T15:41:36;15.00;99.90
23359;DHT22;11851;50.796;4.372;2022-11-15T15:44:02;15.00;99.90
23359;DHT22;11851;50.796;4.372;2022-11-15T15:46:27;15.00;99.90
23359;DHT22;11851;50.796;4.372;2022-11-15T15:48:53;15.00;99.90
23359;DHT22;11851;50.796;4.372;2022-11-15T15:51:19;15.00;99.90
23359;DHT22;11851;50.796;4.372;2022-11-15T15:53:44;15.00;99.90
23359;DHT22;11851;50.796;4.372;2022-11-15T15:56:10;14.90;99.90
23359;DHT22;11851;50.796;4.372;2022-11-15T15:58:36;14.90;99.90
23359;DHT22;11851;50.796;4.372;2022-11-15T16:01:01;14.90;99.90
23359;DHT22;11851;50.796;4.372;2022-11-15T16:03:27;14.90;99.90
23359;DHT22;11851;50.796;4.372;2022-11-15T16:05:53;14.90;99.90
23359;DHT22;11851;50.796;4.372;2022-11-15T16:08:21;14.90;99.90
23359;DHT22;11851;50.796;4.372;2022-11-15T16:10:48;14.80;99.90
23359;DHT22;11851;50.796;4.372;2022-11-15T16:13:13;14.90;99.90
23359;DHT22;11851;50.796;4.372;2022-11-15T16:15:39;14.90;99.90
23359;DHT22;11851;50.796;4.372;2022-11-15T16:18:05;14.80;99.90
23359;DHT22;11851;50.796;4.372;2022-11-15T16:23:06;14.80;99.90
23359;DHT22;11851;50.796;4.372;2022-11-15T16:25:36;14.80;99.90
23359;DHT22;11851;50.796;4.372;2022-11-15T16:28:02;14.80;99.90
23359;DHT22;11851;50.796;4.372;2022-11-15T16:30:28;14.90;99.90
23359;DHT22;11851;50.796;4.372;2022-11-15T16:32:54;14.90;99.90
23359;DHT22;11851;50.796;4.372;2022-11-15T16:35:19;14.90;99.90
23359;DHT22;11851;50.796;4.372;2022-11-15T16:37:51;14.80;99.90
23359;DHT22;11851;50.796;4.372;2022-11-15T16:40:33;14.90;99.90
23359;DHT22;11851;50.796;4.372;2022-11-15T16:43:00;14.90;99.90
23359;DHT22;11851;50.796;4.372;2022-11-15T16:45:27;14.90;99.90
23359;DHT22;11851;50.796;4.372;2022-11-15T16:47:56;14.90;99.90
23359;DHT22;11851;50.796;4.372;2022-11-15T16:50:24;14.90;99.90
23359;DHT22;11851;50.796;4.372;2022-11-15T16:52:51;14.90;99.90
23359;DHT22;11851;50.796;4.372;2022-11-15T16:55:18;14.80;99.90
23359;DHT22;11851;50.796;4.372;2022-11-15T16:57:43;14.90;99.90
23359;DHT22;11851;50.796;4.372;2022-11-15T17:00:13;14.90;99.90
23359;DHT22;11851;50.796;4.372;2022-11-15T17:02:44;14.90;99.90
23359;DHT22;11851;50.796;4.372;2022-11-15T17:05:10;14.90;99.90
23359;DHT22;11851;50.796;4.372;2022-11-15T17:07:36;14.80;99.90
23359;DHT22;11851;50.796;4.372;2022-11-15T17:10:02;14.80;99.90
23359;DHT22;11851;50.796;4.372;2022-11-15T17:12:28;14.80;99.90
23359;DHT22;11851;50.796;4.372;2022-11-15T17:14:55;14.90;99.90
23359;DHT22;11851;50.796;4.372;2022-11-15T17:17:21;14.90;99.90
23359;DHT22;11851;50.796;4.372;2022-11-15T17:19:47;14.80;99.90
23359;DHT22;11851;50.796;4.372;2022-11-15T17:22:13;14.80;99.90
23359;DHT22;11851;50.796;4.372;2022-11-15T17:24:38;14.80;99.90
23359;DHT22;11851;50.796;4.372;2022-11-15T17:27:04;14.70;99.90
23359;DHT22;11851;50.796;4.372;2022-11-15T17:29:30;14.80;99.90
23359;DHT22;11851;50.796;4.372;2022-11-15T17:31:55;14.80;99.90
23359;DHT22;11851;50.796;4.372;2022-11-15T17:34:27;14.80;99.90
23359;DHT22;11851;50.796;4.372;2022-11-15T17:37:21;14.80;99.90
23359;DHT22;11851;50.796;4.372;2022-11-15T17:39:57;14.80;99.90
23359;DHT22;11851;50.796;4.372;2022-11-15T17:42:24;14.90;99.90
23359;DHT22;11851;50.796;4.372;2022-11-15T17:44:58;14.80;99.90
23359;DHT22;11851;50.796;4.372;2022-11-15T17:47:33;14.90;99.90
23359;DHT22;11851;50.796;4.372;2022-11-15T17:50:08;14.90;99.90
23359;DHT22;11851;50.796;4.372;2022-11-15T17:52:58;14.90;99.90